RYR2CQ LGTS-LIRA
Flight info
| Callsign | RYR2CQ |
|---|---|
| Flight time | 1h 39m |
| Altitude | 32000 |
| Route | EDASI M603 KAS UM603 PINDO DCT PAPIZ DCT ESODU Z924 MOPUV |
| Aircraft | B38M/M-SDE1FGHILORVWXY/HB1 |
Departure
| Time | 2026-05-05 12:29 |
|---|---|
| Airport | Thessaloniki Macedonia International Airport (LGTS) |
Arrival
| Time | 2026-05-05 14:08 |
|---|---|
| Airport | Ciampino–G. B. Pastine International Airport (LIRA) |
| Time | Latitude | Longitude | Altitude | Speed | Heading |
|---|---|---|---|---|---|
| 2026-05-05 12:28 | 40.52743 | 22.91543 | 545 ft | 246 kts | 297° |
| 2026-05-05 12:29 | 40.53475 | 22.89497 | 944 ft | 256 kts | 287° |
| 2026-05-05 12:29 | 40.53970 | 22.87220 | 1394 ft | 261 kts | 285° |
| 2026-05-05 12:29 | 40.54463 | 22.84908 | 1940 ft | 263 kts | 285° |
| 2026-05-05 12:29 | 40.54954 | 22.82571 | 2632 ft | 267 kts | 285° |
| 2026-05-05 12:30 | 40.55197 | 22.80158 | 3279 ft | 268 kts | 266° |
| 2026-05-05 12:30 | 40.54938 | 22.78539 | 3741 ft | 271 kts | 249° |
| 2026-05-05 12:30 | 40.53444 | 22.75949 | 4731 ft | 279 kts | 219° |
| 2026-05-05 12:30 | 40.51896 | 22.74426 | 5479 ft | 284 kts | 218° |
| 2026-05-05 12:31 | 40.50867 | 22.73388 | 5989 ft | 287 kts | 218° |
| 2026-05-05 12:31 | 40.49390 | 22.71735 | 6700 ft | 291 kts | 231° |
| 2026-05-05 12:31 | 40.48543 | 22.69347 | 7390 ft | 288 kts | 262° |
| 2026-05-05 12:31 | 40.48355 | 22.66731 | 8154 ft | 293 kts | 263° |
| 2026-05-05 12:32 | 40.48065 | 22.64098 | 8919 ft | 297 kts | 263° |
| 2026-05-05 12:32 | 40.47772 | 22.61429 | 9689 ft | 300 kts | 263° |
| 2026-05-05 12:32 | 40.47478 | 22.58711 | 10407 ft | 302 kts | 263° |
| 2026-05-05 12:32 | 40.47182 | 22.55965 | 11134 ft | 306 kts | 263° |
| 2026-05-05 12:33 | 40.46880 | 22.53168 | 11552 ft | 311 kts | 263° |
| 2026-05-05 12:33 | 40.46576 | 22.50364 | 11666 ft | 310 kts | 264° |
| 2026-05-05 12:33 | 40.46273 | 22.47570 | 11807 ft | 311 kts | 263° |
| 2026-05-05 12:33 | 40.45970 | 22.44777 | 11910 ft | 311 kts | 264° |
| 2026-05-05 12:34 | 40.45742 | 22.41955 | 11987 ft | 310 kts | 272° |
| 2026-05-05 12:34 | 40.45796 | 22.39253 | 12132 ft | 311 kts | 272° |
| 2026-05-05 12:34 | 40.45825 | 22.36357 | 12258 ft | 311 kts | 272° |
| 2026-05-05 12:34 | 40.45838 | 22.33505 | 12392 ft | 312 kts | 272° |
| 2026-05-05 12:35 | 40.45841 | 22.30655 | 12530 ft | 313 kts | 272° |
| 2026-05-05 12:35 | 40.45838 | 22.27801 | 12672 ft | 314 kts | 272° |
| 2026-05-05 12:35 | 40.45831 | 22.24956 | 12797 ft | 314 kts | 272° |
| 2026-05-05 12:35 | 40.45822 | 22.22101 | 12941 ft | 315 kts | 272° |
| 2026-05-05 12:36 | 40.45812 | 22.19228 | 13103 ft | 316 kts | 272° |
| 2026-05-05 12:36 | 40.45801 | 22.16363 | 13262 ft | 316 kts | 272° |
| 2026-05-05 12:36 | 40.45789 | 22.13496 | 13422 ft | 317 kts | 272° |
| 2026-05-05 12:36 | 40.45778 | 22.10715 | 13572 ft | 318 kts | 272° |
| 2026-05-05 12:37 | 40.45764 | 22.07752 | 13678 ft | 318 kts | 272° |
| 2026-05-05 12:37 | 40.45749 | 22.04845 | 13820 ft | 319 kts | 272° |
| 2026-05-05 12:37 | 40.45735 | 22.01932 | 13968 ft | 320 kts | 272° |
| 2026-05-05 12:37 | 40.45718 | 21.99032 | 14007 ft | 319 kts | 272° |
| 2026-05-05 12:38 | 40.45703 | 21.96151 | 14130 ft | 321 kts | 272° |
| 2026-05-05 12:38 | 40.45687 | 21.93220 | 14258 ft | 321 kts | 272° |
| 2026-05-05 12:38 | 40.45668 | 21.90302 | 14365 ft | 321 kts | 272° |
| 2026-05-05 12:38 | 40.45648 | 21.87382 | 14483 ft | 321 kts | 272° |
| 2026-05-05 12:39 | 40.45628 | 21.84445 | 14605 ft | 322 kts | 272° |
| 2026-05-05 12:39 | 40.45607 | 21.81511 | 14723 ft | 322 kts | 272° |
| 2026-05-05 12:39 | 40.45587 | 21.78581 | 14849 ft | 323 kts | 272° |
| 2026-05-05 12:39 | 40.45565 | 21.75633 | 14979 ft | 323 kts | 272° |
| 2026-05-05 12:40 | 40.45540 | 21.72680 | 15093 ft | 324 kts | 272° |
| 2026-05-05 12:40 | 40.45518 | 21.69737 | 15219 ft | 325 kts | 272° |
| 2026-05-05 12:40 | 40.45493 | 21.66782 | 15338 ft | 325 kts | 272° |
| 2026-05-05 12:40 | 40.45468 | 21.63810 | 15458 ft | 326 kts | 272° |
| 2026-05-05 12:41 | 40.45442 | 21.60835 | 15577 ft | 326 kts | 272° |
| 2026-05-05 12:41 | 40.45415 | 21.57859 | 15698 ft | 326 kts | 272° |
| 2026-05-05 12:41 | 40.45388 | 21.54875 | 15821 ft | 327 kts | 272° |
| 2026-05-05 12:41 | 40.45360 | 21.51895 | 15946 ft | 327 kts | 272° |
| 2026-05-05 12:42 | 40.45331 | 21.48910 | 16075 ft | 328 kts | 272° |
| 2026-05-05 12:42 | 40.45302 | 21.45906 | 16190 ft | 328 kts | 272° |
| 2026-05-05 12:42 | 40.45271 | 21.42902 | 16311 ft | 329 kts | 272° |
| 2026-05-05 12:42 | 40.45239 | 21.39934 | 16439 ft | 329 kts | 272° |
| 2026-05-05 12:43 | 40.45207 | 21.36925 | 16563 ft | 330 kts | 272° |
| 2026-05-05 12:43 | 40.45175 | 21.33918 | 16693 ft | 330 kts | 272° |
| 2026-05-05 12:43 | 40.45141 | 21.30901 | 16821 ft | 330 kts | 272° |
| 2026-05-05 12:43 | 40.45118 | 21.27883 | 16941 ft | 330 kts | 275° |
| 2026-05-05 12:44 | 40.45402 | 21.24913 | 17073 ft | 328 kts | 281° |
| 2026-05-05 12:44 | 40.45708 | 21.21938 | 17191 ft | 329 kts | 280° |
| 2026-05-05 12:44 | 40.45995 | 21.18952 | 17317 ft | 330 kts | 279° |
| 2026-05-05 12:44 | 40.46272 | 21.15963 | 17442 ft | 330 kts | 279° |
| 2026-05-05 12:45 | 40.46543 | 21.12964 | 17570 ft | 331 kts | 279° |
| 2026-05-05 12:45 | 40.46811 | 21.09962 | 17697 ft | 331 kts | 279° |
| 2026-05-05 12:45 | 40.47078 | 21.06957 | 17824 ft | 331 kts | 279° |
| 2026-05-05 12:45 | 40.47343 | 21.03946 | 17959 ft | 332 kts | 279° |
| 2026-05-05 12:46 | 40.47608 | 21.00933 | 18092 ft | 332 kts | 279° |
| 2026-05-05 12:46 | 40.47872 | 20.97917 | 18219 ft | 333 kts | 279° |
| 2026-05-05 12:46 | 40.48215 | 20.94915 | 18338 ft | 331 kts | 288° |
| 2026-05-05 12:46 | 40.48926 | 20.92045 | 18455 ft | 331 kts | 289° |
| 2026-05-05 12:47 | 40.49584 | 20.89146 | 18573 ft | 332 kts | 288° |
| 2026-05-05 12:47 | 40.50220 | 20.86270 | 18687 ft | 332 kts | 288° |
| 2026-05-05 12:47 | 40.50854 | 20.83349 | 18802 ft | 333 kts | 288° |
| 2026-05-05 12:47 | 40.51482 | 20.80423 | 18916 ft | 333 kts | 288° |
| 2026-05-05 12:48 | 40.52106 | 20.77493 | 19021 ft | 333 kts | 288° |
| 2026-05-05 12:48 | 40.52731 | 20.74554 | 19136 ft | 334 kts | 288° |
| 2026-05-05 12:48 | 40.53354 | 20.71612 | 19249 ft | 334 kts | 288° |
| 2026-05-05 12:48 | 40.53977 | 20.68670 | 19364 ft | 334 kts | 288° |
| 2026-05-05 12:49 | 40.54600 | 20.65721 | 19479 ft | 335 kts | 287° |
| 2026-05-05 12:49 | 40.55222 | 20.62773 | 19594 ft | 335 kts | 288° |
| 2026-05-05 12:49 | 40.55844 | 20.59818 | 19708 ft | 335 kts | 287° |
| 2026-05-05 12:49 | 40.56466 | 20.56863 | 19821 ft | 336 kts | 287° |
| 2026-05-05 12:50 | 40.57088 | 20.53900 | 19941 ft | 336 kts | 287° |
| 2026-05-05 12:50 | 40.57711 | 20.50930 | 20048 ft | 336 kts | 287° |
| 2026-05-05 12:50 | 40.58332 | 20.47966 | 20162 ft | 337 kts | 287° |
| 2026-05-05 12:50 | 40.58955 | 20.44991 | 20277 ft | 337 kts | 287° |
| 2026-05-05 12:51 | 40.59578 | 20.42008 | 20403 ft | 338 kts | 287° |
| 2026-05-05 12:51 | 40.60191 | 20.39068 | 20524 ft | 338 kts | 287° |
| 2026-05-05 12:51 | 40.60811 | 20.36089 | 20636 ft | 338 kts | 287° |
| 2026-05-05 12:51 | 40.61434 | 20.33095 | 20761 ft | 338 kts | 287° |
| 2026-05-05 12:52 | 40.62054 | 20.30109 | 20875 ft | 339 kts | 287° |
| 2026-05-05 12:52 | 40.62674 | 20.27118 | 20989 ft | 339 kts | 287° |
| 2026-05-05 12:52 | 40.63295 | 20.24121 | 21100 ft | 340 kts | 287° |
| 2026-05-05 12:52 | 40.63916 | 20.21123 | 21236 ft | 340 kts | 287° |
| 2026-05-05 12:53 | 40.64534 | 20.18125 | 21344 ft | 340 kts | 287° |
| 2026-05-05 12:53 | 40.65153 | 20.15123 | 21474 ft | 340 kts | 287° |
| 2026-05-05 12:53 | 40.65776 | 20.12103 | 21592 ft | 341 kts | 287° |
| 2026-05-05 12:53 | 40.66396 | 20.09087 | 21709 ft | 341 kts | 287° |
| 2026-05-05 12:54 | 40.67635 | 20.03050 | 21950 ft | 342 kts | 287° |
| 2026-05-05 12:54 | 40.68254 | 20.00025 | 22067 ft | 342 kts | 287° |
| 2026-05-05 12:54 | 40.68874 | 19.96995 | 22190 ft | 343 kts | 287° |
| 2026-05-05 12:55 | 40.69492 | 19.93963 | 22317 ft | 343 kts | 287° |
| 2026-05-05 12:55 | 40.70112 | 19.90923 | 22435 ft | 343 kts | 287° |
| 2026-05-05 12:55 | 40.70730 | 19.87887 | 22560 ft | 343 kts | 287° |
| 2026-05-05 12:55 | 40.71349 | 19.84840 | 22690 ft | 344 kts | 287° |
| 2026-05-05 12:56 | 40.71967 | 19.81792 | 22809 ft | 345 kts | 287° |
| 2026-05-05 12:56 | 40.72587 | 19.78737 | 22937 ft | 345 kts | 287° |
| 2026-05-05 12:56 | 40.73205 | 19.75681 | 23059 ft | 345 kts | 287° |
| 2026-05-05 12:56 | 40.73823 | 19.72620 | 23186 ft | 345 kts | 287° |
| 2026-05-05 12:57 | 40.74433 | 19.69596 | 23308 ft | 346 kts | 287° |
| 2026-05-05 12:57 | 40.75052 | 19.66524 | 23437 ft | 346 kts | 287° |
| 2026-05-05 12:57 | 40.75670 | 19.63453 | 23562 ft | 347 kts | 287° |
| 2026-05-05 12:57 | 40.76287 | 19.60380 | 23686 ft | 347 kts | 286° |
| 2026-05-05 12:58 | 40.76905 | 19.57296 | 23795 ft | 347 kts | 286° |
| 2026-05-05 12:58 | 40.77522 | 19.54219 | 23901 ft | 347 kts | 286° |
| 2026-05-05 12:58 | 40.78136 | 19.51146 | 24007 ft | 347 kts | 286° |
| 2026-05-05 12:58 | 40.78752 | 19.48059 | 24116 ft | 348 kts | 286° |
| 2026-05-05 12:59 | 40.79368 | 19.44970 | 24221 ft | 348 kts | 286° |
| 2026-05-05 12:59 | 40.79982 | 19.41882 | 24331 ft | 348 kts | 286° |
| 2026-05-05 12:59 | 40.80597 | 19.38789 | 24439 ft | 348 kts | 286° |
| 2026-05-05 13:00 | 40.81824 | 19.32600 | 24658 ft | 349 kts | 286° |
| 2026-05-05 13:00 | 40.82436 | 19.29505 | 24766 ft | 349 kts | 286° |
| 2026-05-05 13:01 | 40.84266 | 19.20225 | 25093 ft | 349 kts | 285° |
| 2026-05-05 13:01 | 40.84877 | 19.17117 | 25195 ft | 350 kts | 285° |
| 2026-05-05 13:01 | 40.85488 | 19.14007 | 25310 ft | 350 kts | 285° |
| 2026-05-05 13:01 | 40.86098 | 19.10898 | 25421 ft | 350 kts | 285° |
| 2026-05-05 13:02 | 40.86709 | 19.07782 | 25527 ft | 350 kts | 285° |
| 2026-05-05 13:02 | 40.87319 | 19.04665 | 25635 ft | 350 kts | 285° |
| 2026-05-05 13:02 | 40.87927 | 19.01548 | 25751 ft | 350 kts | 285° |
| 2026-05-05 13:02 | 40.88535 | 18.98434 | 25854 ft | 350 kts | 285° |
| 2026-05-05 13:03 | 40.89167 | 18.95327 | 25966 ft | 350 kts | 290° |
| 2026-05-05 13:03 | 40.90171 | 18.92467 | 26084 ft | 349 kts | 297° |
| 2026-05-05 13:03 | 40.91241 | 18.89516 | 26188 ft | 350 kts | 295° |
| 2026-05-05 13:03 | 40.92287 | 18.86608 | 26293 ft | 349 kts | 296° |
| 2026-05-05 13:04 | 40.93334 | 18.83709 | 26413 ft | 349 kts | 296° |
| 2026-05-05 13:04 | 40.94379 | 18.80822 | 26520 ft | 348 kts | 296° |
| 2026-05-05 13:04 | 40.95409 | 18.77976 | 26625 ft | 348 kts | 296° |
| 2026-05-05 13:04 | 40.96452 | 18.75094 | 26751 ft | 347 kts | 296° |
| 2026-05-05 13:05 | 40.97494 | 18.72212 | 26856 ft | 347 kts | 295° |
| 2026-05-05 13:05 | 40.98532 | 18.69336 | 26966 ft | 346 kts | 295° |
| 2026-05-05 13:05 | 40.99570 | 18.66459 | 27077 ft | 346 kts | 295° |
| 2026-05-05 13:05 | 41.00605 | 18.63586 | 27189 ft | 345 kts | 295° |
| 2026-05-05 13:06 | 41.01637 | 18.60720 | 27303 ft | 345 kts | 295° |
| 2026-05-05 13:06 | 41.02669 | 18.57853 | 27414 ft | 344 kts | 295° |
| 2026-05-05 13:06 | 41.03697 | 18.54991 | 27526 ft | 344 kts | 295° |
| 2026-05-05 13:06 | 41.04721 | 18.52138 | 27642 ft | 343 kts | 295° |
| 2026-05-05 13:07 | 41.05744 | 18.49285 | 27757 ft | 342 kts | 295° |
| 2026-05-05 13:07 | 41.06763 | 18.46440 | 27870 ft | 342 kts | 295° |
| 2026-05-05 13:07 | 41.07767 | 18.43636 | 27982 ft | 341 kts | 295° |
| 2026-05-05 13:07 | 41.08797 | 18.40754 | 28101 ft | 341 kts | 295° |
| 2026-05-05 13:08 | 41.09797 | 18.37955 | 28218 ft | 340 kts | 295° |
| 2026-05-05 13:08 | 41.10808 | 18.35122 | 28333 ft | 340 kts | 295° |
| 2026-05-05 13:08 | 41.11828 | 18.32260 | 28439 ft | 339 kts | 295° |
| 2026-05-05 13:08 | 41.12823 | 18.29467 | 28571 ft | 338 kts | 295° |
| 2026-05-05 13:09 | 41.13825 | 18.26648 | 28692 ft | 338 kts | 295° |
| 2026-05-05 13:09 | 41.14829 | 18.23826 | 28806 ft | 337 kts | 295° |
| 2026-05-05 13:09 | 41.15829 | 18.21008 | 28931 ft | 337 kts | 295° |
| 2026-05-05 13:09 | 41.16826 | 18.18197 | 29044 ft | 336 kts | 295° |
| 2026-05-05 13:10 | 41.17821 | 18.15389 | 29157 ft | 336 kts | 295° |
| 2026-05-05 13:10 | 41.18815 | 18.12581 | 29276 ft | 335 kts | 294° |
| 2026-05-05 13:10 | 41.19804 | 18.09783 | 29400 ft | 335 kts | 294° |
| 2026-05-05 13:10 | 41.20793 | 18.06987 | 29523 ft | 334 kts | 294° |
| 2026-05-05 13:11 | 41.21775 | 18.04201 | 29641 ft | 333 kts | 294° |
| 2026-05-05 13:11 | 41.22760 | 18.01409 | 29764 ft | 333 kts | 294° |
| 2026-05-05 13:11 | 41.23739 | 17.98630 | 29883 ft | 332 kts | 294° |
| 2026-05-05 13:11 | 41.24714 | 17.95859 | 30012 ft | 331 kts | 294° |
| 2026-05-05 13:12 | 41.25687 | 17.93093 | 30127 ft | 330 kts | 294° |
| 2026-05-05 13:12 | 41.26656 | 17.90333 | 30232 ft | 329 kts | 294° |
| 2026-05-05 13:12 | 41.27608 | 17.87620 | 30338 ft | 328 kts | 294° |
| 2026-05-05 13:12 | 41.28581 | 17.84844 | 30439 ft | 327 kts | 294° |
| 2026-05-05 13:13 | 41.30481 | 17.79417 | 30639 ft | 324 kts | 294° |
| 2026-05-05 13:13 | 41.31430 | 17.76701 | 30746 ft | 323 kts | 294° |
| 2026-05-05 13:13 | 41.32376 | 17.73994 | 30854 ft | 322 kts | 294° |
| 2026-05-05 13:14 | 41.34257 | 17.68597 | 31053 ft | 321 kts | 294° |
| 2026-05-05 13:14 | 41.36126 | 17.63228 | 31259 ft | 319 kts | 293° |
| 2026-05-05 13:15 | 41.37055 | 17.60555 | 31362 ft | 318 kts | 293° |
| 2026-05-05 13:15 | 41.37983 | 17.57882 | 31467 ft | 317 kts | 293° |
| 2026-05-05 13:15 | 41.38907 | 17.55217 | 31569 ft | 316 kts | 293° |
| 2026-05-05 13:15 | 41.39827 | 17.52564 | 31673 ft | 315 kts | 293° |
| 2026-05-05 13:16 | 41.40745 | 17.49911 | 31784 ft | 315 kts | 293° |
| 2026-05-05 13:16 | 41.41660 | 17.47266 | 31900 ft | 314 kts | 293° |
| 2026-05-05 13:16 | 41.43482 | 17.41991 | 32064 ft | 313 kts | 292° |
| 2026-05-05 13:17 | 41.45291 | 17.36746 | 32061 ft | 312 kts | 292° |
| 2026-05-05 13:17 | 41.47103 | 17.31480 | 32053 ft | 312 kts | 292° |
| 2026-05-05 13:18 | 41.48910 | 17.26217 | 32054 ft | 311 kts | 292° |
| 2026-05-05 13:18 | 41.50713 | 17.20957 | 32050 ft | 312 kts | 292° |
| 2026-05-05 13:19 | 41.52500 | 17.15735 | 32052 ft | 312 kts | 292° |
| 2026-05-05 13:19 | 41.54299 | 17.10467 | 32051 ft | 312 kts | 292° |
| 2026-05-05 13:20 | 41.55793 | 17.06086 | 32051 ft | 312 kts | 292° |
| 2026-05-05 13:20 | 41.57586 | 17.00816 | 32050 ft | 312 kts | 292° |
| 2026-05-05 13:21 | 41.59377 | 16.95544 | 32051 ft | 312 kts | 292° |
| 2026-05-05 13:21 | 41.61167 | 16.90265 | 32049 ft | 312 kts | 292° |
| 2026-05-05 13:22 | 41.62954 | 16.84983 | 32045 ft | 312 kts | 291° |
| 2026-05-05 13:22 | 41.64730 | 16.79727 | 32048 ft | 312 kts | 291° |
| 2026-05-05 13:23 | 41.66516 | 16.74428 | 32048 ft | 312 kts | 291° |
| 2026-05-05 13:23 | 41.68298 | 16.69132 | 32047 ft | 312 kts | 291° |
| 2026-05-05 13:24 | 41.70081 | 16.63822 | 32045 ft | 313 kts | 291° |
| 2026-05-05 13:24 | 41.71861 | 16.58511 | 32046 ft | 313 kts | 291° |
| 2026-05-05 13:25 | 41.73638 | 16.53201 | 32042 ft | 313 kts | 291° |
| 2026-05-05 13:25 | 41.75420 | 16.47864 | 32038 ft | 313 kts | 291° |
| 2026-05-05 13:26 | 41.77184 | 16.42569 | 32038 ft | 314 kts | 291° |
| 2026-05-05 13:26 | 41.78963 | 16.37222 | 32041 ft | 314 kts | 291° |
| 2026-05-05 13:27 | 41.80738 | 16.31873 | 32039 ft | 314 kts | 291° |
| 2026-05-05 13:27 | 41.82512 | 16.26518 | 32038 ft | 315 kts | 290° |
| 2026-05-05 13:28 | 41.84289 | 16.21144 | 32045 ft | 315 kts | 290° |
| 2026-05-05 13:28 | 41.86065 | 16.15761 | 32051 ft | 316 kts | 290° |
| 2026-05-05 13:29 | 41.87841 | 16.10371 | 32053 ft | 316 kts | 290° |
| 2026-05-05 13:29 | 41.89617 | 16.04967 | 32059 ft | 316 kts | 290° |
| 2026-05-05 13:30 | 41.91394 | 15.99549 | 32062 ft | 317 kts | 290° |
| 2026-05-05 13:30 | 41.93157 | 15.94166 | 32078 ft | 317 kts | 290° |
| 2026-05-05 13:31 | 41.94935 | 15.88725 | 32074 ft | 318 kts | 290° |
| 2026-05-05 13:31 | 41.96712 | 15.83273 | 32077 ft | 319 kts | 290° |
| 2026-05-05 13:32 | 41.98492 | 15.77806 | 32074 ft | 319 kts | 290° |
| 2026-05-05 13:32 | 42.00274 | 15.72317 | 32070 ft | 320 kts | 290° |
| 2026-05-05 13:33 | 42.02054 | 15.66827 | 32063 ft | 321 kts | 290° |
| 2026-05-05 13:33 | 42.03836 | 15.61316 | 32057 ft | 321 kts | 290° |
| 2026-05-05 13:34 | 42.05617 | 15.55800 | 32045 ft | 322 kts | 290° |
| 2026-05-05 13:34 | 42.07400 | 15.50266 | 32038 ft | 322 kts | 290° |
| 2026-05-05 13:35 | 42.09182 | 15.44722 | 32025 ft | 323 kts | 290° |
| 2026-05-05 13:35 | 42.10953 | 15.39202 | 32019 ft | 324 kts | 290° |
| 2026-05-05 13:36 | 42.12736 | 15.33632 | 32016 ft | 324 kts | 290° |
| 2026-05-05 13:36 | 42.14522 | 15.28044 | 32015 ft | 325 kts | 290° |
| 2026-05-05 13:37 | 42.16308 | 15.22440 | 32013 ft | 325 kts | 290° |
| 2026-05-05 13:37 | 42.18096 | 15.16822 | 32015 ft | 326 kts | 290° |
| 2026-05-05 13:38 | 42.19884 | 15.11188 | 32010 ft | 327 kts | 289° |
| 2026-05-05 13:38 | 42.21662 | 15.05577 | 32007 ft | 327 kts | 289° |
| 2026-05-05 13:39 | 42.23452 | 14.99915 | 32007 ft | 328 kts | 289° |
| 2026-05-05 13:39 | 42.25241 | 14.94245 | 32005 ft | 329 kts | 289° |
| 2026-05-05 13:40 | 42.27030 | 14.88559 | 32005 ft | 329 kts | 289° |
| 2026-05-05 13:40 | 42.28819 | 14.82869 | 32007 ft | 329 kts | 289° |
| 2026-05-05 13:41 | 42.30607 | 14.77171 | 32001 ft | 330 kts | 289° |
| 2026-05-05 13:41 | 42.32393 | 14.71463 | 32004 ft | 330 kts | 289° |
| 2026-05-05 13:42 | 42.34180 | 14.65744 | 32004 ft | 330 kts | 289° |
| 2026-05-05 13:42 | 42.35955 | 14.60052 | 32014 ft | 330 kts | 289° |
| 2026-05-05 13:43 | 42.37737 | 14.54323 | 32021 ft | 331 kts | 289° |
| 2026-05-05 13:43 | 42.39520 | 14.48581 | 32027 ft | 331 kts | 289° |
| 2026-05-05 13:44 | 42.41301 | 14.42832 | 32036 ft | 331 kts | 289° |
| 2026-05-05 13:44 | 42.42992 | 14.37039 | 32031 ft | 328 kts | 281° |
| 2026-05-05 13:45 | 42.43164 | 14.34000 | 32044 ft | 324 kts | 263° |
| 2026-05-05 13:45 | 42.42620 | 14.31043 | 32057 ft | 327 kts | 250° |
| 2026-05-05 13:45 | 42.40748 | 14.25415 | 32053 ft | 329 kts | 246° |
| 2026-05-05 13:46 | 42.38605 | 14.19930 | 32048 ft | 329 kts | 244° |
| 2026-05-05 13:46 | 42.36361 | 14.14520 | 32047 ft | 329 kts | 243° |
| 2026-05-05 13:47 | 42.34100 | 14.09183 | 32042 ft | 329 kts | 243° |
| 2026-05-05 13:47 | 42.31814 | 14.03826 | 32036 ft | 329 kts | 243° |
| 2026-05-05 13:48 | 42.29522 | 13.98474 | 32030 ft | 329 kts | 243° |
| 2026-05-05 13:48 | 42.27228 | 13.93125 | 32017 ft | 328 kts | 243° |
| 2026-05-05 13:49 | 42.24937 | 13.87791 | 32022 ft | 328 kts | 243° |
| 2026-05-05 13:49 | 42.22646 | 13.82464 | 32019 ft | 328 kts | 243° |
| 2026-05-05 13:50 | 42.20363 | 13.77165 | 32013 ft | 328 kts | 243° |
| 2026-05-05 13:50 | 42.18324 | 13.71695 | 32030 ft | 324 kts | 253° |
| 2026-05-05 13:51 | 42.16717 | 13.65977 | 32036 ft | 327 kts | 250° |
| 2026-05-05 13:51 | 42.15090 | 13.60258 | 32031 ft | 327 kts | 251° |
| 2026-05-05 13:52 | 42.13469 | 13.54533 | 32029 ft | 327 kts | 251° |
| 2026-05-05 13:52 | 42.11843 | 13.48798 | 32033 ft | 327 kts | 251° |
| 2026-05-05 13:53 | 42.10216 | 13.43069 | 32040 ft | 327 kts | 251° |
| 2026-05-05 13:53 | 42.08585 | 13.37343 | 32053 ft | 328 kts | 251° |
| 2026-05-05 13:54 | 42.06952 | 13.31619 | 32060 ft | 328 kts | 251° |
| 2026-05-05 13:54 | 42.05016 | 13.26072 | 32068 ft | 330 kts | 239° |
| 2026-05-05 13:55 | 42.02677 | 13.20809 | 32094 ft | 330 kts | 243° |
| 2026-05-05 13:55 | 42.00329 | 13.15499 | 32084 ft | 330 kts | 243° |
| 2026-05-05 13:56 | 41.98301 | 13.10013 | 32081 ft | 328 kts | 247° |
| 2026-05-05 13:56 | 41.96352 | 13.04491 | 32083 ft | 327 kts | 247° |
| 2026-05-05 13:57 | 41.94429 | 12.98943 | 32094 ft | 327 kts | 248° |
| 2026-05-05 13:57 | 41.92515 | 12.93405 | 32072 ft | 327 kts | 248° |
| 2026-05-05 13:58 | 41.90610 | 12.87911 | 32101 ft | 326 kts | 248° |
| 2026-05-05 13:58 | 41.88692 | 12.82387 | 32094 ft | 326 kts | 248° |
| 2026-05-05 13:59 | 41.85820 | 12.74132 | 32075 ft | 325 kts | 248° |
| 2026-05-05 14:00 | 41.84449 | 12.70195 | 32072 ft | 324 kts | 248° |
| 2026-05-05 14:00 | 41.82214 | 12.63795 | 32077 ft | 324 kts | 248° |
| 2026-05-05 14:01 | 41.80303 | 12.58326 | 32075 ft | 324 kts | 248° |
| 2026-05-05 14:01 | 41.78400 | 12.52842 | 32072 ft | 324 kts | 248° |
| 2026-05-05 14:02 | 41.76503 | 12.47372 | 32068 ft | 324 kts | 248° |
| 2026-05-05 14:02 | 41.74619 | 12.41943 | 32074 ft | 323 kts | 248° |
| 2026-05-05 14:03 | 41.72725 | 12.36481 | 32076 ft | 323 kts | 248° |
| 2026-05-05 14:03 | 41.70833 | 12.31025 | 32076 ft | 323 kts | 248° |
| 2026-05-05 14:04 | 41.68942 | 12.25572 | 32075 ft | 323 kts | 248° |
| 2026-05-05 14:04 | 41.67053 | 12.20128 | 32073 ft | 322 kts | 248° |
| 2026-05-05 14:05 | 41.65166 | 12.14696 | 32063 ft | 322 kts | 248° |
| 2026-05-05 14:05 | 41.63283 | 12.09277 | 32063 ft | 322 kts | 248° |
| 2026-05-05 14:06 | 41.76345 | 12.61961 | 994 ft | 315 kts | 207° |
| 2026-05-05 14:06 | 41.85827 | 12.55426 | 1730 ft | 145 kts | 153° |
| 2026-05-05 14:06 | 41.84876 | 12.56103 | 950 ft | 173 kts | 154° |
| 2026-05-05 14:07 | 41.83902 | 12.56767 | 1153 ft | 142 kts | 154° |
| 2026-05-05 14:07 | 41.82979 | 12.57403 | 1003 ft | 152 kts | 154° |
| 2026-05-05 14:07 | 41.82067 | 12.58053 | 602 ft | 145 kts | 155° |
| 2026-05-05 14:07 | 41.81217 | 12.58632 | 432 ft | 134 kts | 156° |
| 2026-05-05 14:08 | 41.80383 | 12.59190 | 374 ft | 126 kts | 155° |
| 2026-05-05 14:08 | 41.79960 | 12.59455 | 395 ft | 13 kts | 156° |
| 2026-05-05 14:08 | 41.79955 | 12.59458 | 393 ft | 0 kts | 156° |
| 2026-05-05 14:08 | 41.79892 | 12.59476 | 398 ft | 12 kts | 199° |
| 2026-05-05 14:09 | 41.79825 | 12.59388 | 397 ft | 13 kts | 202° |
| 2026-05-05 14:09 | 41.79750 | 12.59390 | 399 ft | 9 kts | 155° |
| 2026-05-05 14:09 | 41.79705 | 12.59427 | 402 ft | 7 kts | 149° |
| 2026-05-05 14:09 | 41.79634 | 12.59483 | 405 ft | 19 kts | 150° |
| 2026-05-05 14:10 | 41.79503 | 12.59509 | 409 ft | 22 kts | 187° |
| 2026-05-05 14:10 | 41.79367 | 12.59461 | 411 ft | 3 kts | 130° |
| 2026-05-05 14:10 | 41.79378 | 12.59504 | 413 ft | 9 kts | 57° |
| 2026-05-05 14:10 | 41.79388 | 12.59525 | 413 ft | 0 kts | 52° |